Time;durP1;ratioP1;P1;durP2;ratioP2;P2;SDS_P1;SDS_P2;PMS_P1;PMS_P2;Temp;Humidity;BMP_temperature;BMP_pressure;BME280_temperature;BME280_humidity;BME280_pressure;Samples;Min_cycle;Max_cycle;Signal;HPM_P1;HPM_P2
2022/10/30 00:00:22;;;;;;;22.43;11.13;;;14.80;99.90;;;;;;5072937;28;20080;-78
2022/10/30 00:02:48;;;;;;;21.10;12.53;;;14.80;99.90;;;;;;5073077;28;20082;-78
2022/10/30 00:05:15;;;;;;;19.33;12.00;;;14.80;99.90;;;;;;5072663;28;20047;-78
2022/10/30 00:07:41;;;;;;;22.47;12.03;;;14.80;99.90;;;;;;5072929;28;20052;-77
2022/10/30 00:10:08;;;;;;;24.37;13.53;;;14.80;99.90;;;;;;5071686;28;20059;-78
2022/10/30 00:12:33;;;;;;;20.37;12.07;;;14.80;99.90;;;;;;5072588;28;20040;-78
2022/10/30 00:14:59;;;;;;;26.70;12.90;;;14.70;99.90;;;;;;5072611;28;20041;-78
2022/10/30 00:17:25;;;;;;;26.63;13.53;;;14.70;99.90;;;;;;5071528;28;20048;-78
2022/10/30 00:19:51;;;;;;;20.13;13.03;;;14.70;99.90;;;;;;5072741;28;20481;-78
2022/10/30 00:22:17;;;;;;;27.03;12.53;;;14.70;99.90;;;;;;5054845;28;20102;-78
2022/10/30 00:24:42;;;;;;;22.63;11.67;;;14.70;99.90;;;;;;5072757;28;20040;-78
2022/10/30 00:27:08;;;;;;;21.20;11.30;;;14.70;99.90;;;;;;5071197;28;20462;-78
2022/10/30 00:29:33;;;;;;;23.90;12.70;;;14.70;99.90;;;;;;5072680;28;20052;-78
2022/10/30 00:31:59;;;;;;;20.10;12.50;;;14.70;99.90;;;;;;5073625;28;20052;-79
2022/10/30 00:34:25;;;;;;;21.93;13.07;;;14.60;99.90;;;;;;5076295;28;20563;-78
2022/10/30 00:36:50;;;;;;;21.67;11.67;;;14.60;99.90;;;;;;5075332;28;20132;-78
2022/10/30 00:39:16;;;;;;;28.70;13.97;;;14.60;99.90;;;;;;5076603;28;20041;-78
2022/10/30 00:41:42;;;;;;;23.77;12.63;;;14.60;99.90;;;;;;5076617;28;20048;-78
2022/10/30 00:44:36;;;;;;;27.37;13.03;;;14.60;99.90;;;;;;5076243;28;20086;-78
2022/10/30 00:47:08;;;;;;;23.07;12.73;;;14.60;99.90;;;;;;5070849;28;20057;-80
2022/10/30 00:49:37;;;;;;;23.33;13.13;;;14.50;99.90;;;;;;5076487;28;20054;-78
2022/10/30 00:52:07;;;;;;;20.87;11.27;;;14.50;99.90;;;;;;5075086;28;20052;-79
2022/10/30 00:54:34;;;;;;;22.43;12.43;;;14.60;99.90;;;;;;5076735;28;20116;-78
2022/10/30 00:57:02;;;;;;;24.73;12.20;;;14.50;99.90;;;;;;5076170;28;20110;-78
2022/10/30 00:59:30;;;;;;;25.07;12.80;;;14.50;99.90;;;;;;5074768;28;20055;-78
2022/10/30 01:01:57;;;;;;;22.63;11.67;;;14.50;99.90;;;;;;5076101;28;20053;-77
2022/10/30 01:04:23;;;;;;;22.50;12.73;;;14.60;99.90;;;;;;5075741;28;20049;-78
2022/10/30 01:06:52;;;;;;;21.97;12.80;;;14.50;99.90;;;;;;5074687;28;20142;-78
2022/10/30 01:09:21;;;;;;;21.30;12.03;;;14.50;99.90;;;;;;5075708;28;20051;-78
2022/10/30 01:11:47;;;;;;;21.20;12.67;;;14.50;99.90;;;;;;5075907;28;20044;-78
2022/10/30 01:14:17;;;;;;;21.07;11.37;;;14.50;99.90;;;;;;5075722;28;20488;-78
2022/10/30 01:16:58;;;;;;;19.90;12.40;;;14.50;99.90;;;;;;5075399;28;20048;-78
2022/10/30 01:19:32;;;;;;;22.87;12.83;;;14.50;99.90;;;;;;5074093;28;20124;-78
2022/10/30 01:22:40;;;;;;;22.08;12.32;;;14.50;99.90;;;;;;5075376;28;20048;-78
2022/10/30 01:25:40;;;;;;;19.20;11.50;;;14.50;99.90;;;;;;5075041;28;20091;-78
2022/10/30 01:28:27;;;;;;;26.80;12.90;;;14.50;99.90;;;;;;5075272;28;20131;-78
2022/10/30 01:31:15;;;;;;;26.33;13.40;;;14.50;99.90;;;;;;5074487;28;20044;-78
2022/10/30 01:34:13;;;;;;;27.67;13.77;;;14.40;99.90;;;;;;5074380;28;20136;-78
2022/10/30 01:36:44;;;;;;;20.60;12.43;;;14.50;99.90;;;;;;5052376;28;20169;-78
2022/10/30 01:39:34;;;;;;;25.67;12.50;;;14.40;99.90;;;;;;5074346;28;20044;-78
2022/10/30 01:42:27;;;;;;;23.07;12.60;;;14.40;99.90;;;;;;5075494;28;20048;-78
2022/10/30 01:44:53;;;;;;;25.37;13.60;;;14.40;99.90;;;;;;5066157;28;20503;-78
2022/10/30 01:47:37;;;;;;;29.33;13.07;;;14.40;99.90;;;;;;5074985;28;20062;-78
2022/10/30 01:50:15;;;;;;;22.93;11.93;;;14.40;99.90;;;;;;5075235;28;20055;-78
2022/10/30 01:52:48;;;;;;;23.27;12.97;;;14.40;99.90;;;;;;5074164;28;20047;-78
2022/10/30 01:55:38;;;;;;;26.13;11.80;;;14.30;99.90;;;;;;5074875;28;20040;-78
2022/10/30 01:58:21;;;;;;;20.50;12.47;;;14.30;99.90;;;;;;5075076;28;20055;-78
2022/10/30 02:00:51;;;;;;;22.57;13.43;;;14.40;99.90;;;;;;5075228;28;20050;-78
2022/10/30 02:03:18;;;;;;;24.60;13.43;;;14.30;99.90;;;;;;5074525;28;20045;-78
2022/10/30 02:05:49;;;;;;;23.90;12.23;;;14.30;99.90;;;;;;5073777;28;20388;-78
2022/10/30 02:08:15;;;;;;;22.63;11.93;;;14.30;99.90;;;;;;5074573;28;20044;-78
2022/10/30 02:10:44;;;;;;;28.73;14.60;;;14.30;99.90;;;;;;5074773;28;20049;-78
2022/10/30 02:13:10;;;;;;;24.30;12.33;;;14.30;99.90;;;;;;5074689;28;20044;-78
2022/10/30 02:15:36;;;;;;;19.70;12.90;;;14.30;99.90;;;;;;5074432;28;20409;-78
2022/10/30 02:18:02;;;;;;;22.23;12.60;;;14.30;99.90;;;;;;5074676;28;20132;-78
2022/10/30 02:20:28;;;;;;;27.57;13.90;;;14.30;99.90;;;;;;5074305;28;20088;-78
2022/10/30 02:22:54;;;;;;;23.07;12.10;;;14.20;99.90;;;;;;5074606;28;20050;-78
2022/10/30 02:25:20;;;;;;;22.93;13.10;;;14.20;99.90;;;;;;5074588;28;20354;-78
2022/10/30 02:27:45;;;;;;;20.97;12.20;;;14.20;99.90;;;;;;5072834;28;20052;-78
2022/10/30 02:30:11;;;;;;;21.53;11.70;;;14.20;99.90;;;;;;5073468;28;20074;-78
2022/10/30 02:32:37;;;;;;;23.47;13.07;;;14.10;99.90;;;;;;5074124;28;20052;-78
2022/10/30 02:35:04;;;;;;;25.03;13.83;;;14.10;99.90;;;;;;5074291;28;20036;-78
2022/10/30 02:37:31;;;;;;;18.00;12.47;;;14.10;99.90;;;;;;5073985;28;20480;-78
2022/10/30 02:39:57;;;;;;;25.70;12.40;;;14.10;99.90;;;;;;5074270;28;20131;-78
2022/10/30 02:42:23;;;;;;;25.03;12.27;;;14.10;99.90;;;;;;5073925;28;20404;-78
2022/10/30 02:44:49;;;;;;;22.13;12.30;;;14.10;99.90;;;;;;5074099;28;20054;-78
2022/10/30 02:47:15;;;;;;;22.03;13.00;;;14.10;99.90;;;;;;5072931;28;20343;-78
2022/10/30 02:49:40;;;;;;;21.57;12.63;;;14.10;99.90;;;;;;5073806;28;20055;-78
2022/10/30 02:52:07;;;;;;;20.57;11.87;;;14.10;99.90;;;;;;5074000;28;20087;-78
2022/10/30 02:54:34;;;;;;;20.37;11.90;;;14.00;99.90;;;;;;5073296;28;20090;-79
2022/10/30 02:57:00;;;;;;;22.70;13.03;;;14.10;99.90;;;;;;5073888;28;20048;-78
2022/10/30 02:59:25;;;;;;;22.67;13.30;;;14.00;99.90;;;;;;5072673;28;20040;-78
2022/10/30 03:01:51;;;;;;;19.77;13.20;;;14.00;99.90;;;;;;5073949;28;20051;-78
2022/10/30 03:04:17;;;;;;;28.87;14.90;;;14.00;99.90;;;;;;5073808;28;20044;-78
2022/10/30 03:06:42;;;;;;;23.03;12.20;;;14.00;99.90;;;;;;5055591;28;20036;-78
2022/10/30 03:09:08;;;;;;;22.47;13.40;;;13.90;99.90;;;;;;5073980;28;20097;-78
2022/10/30 03:11:34;;;;;;;20.07;12.73;;;13.90;99.90;;;;;;5073077;28;20466;-78
2022/10/30 03:14:00;;;;;;;25.43;13.57;;;13.90;99.90;;;;;;5073580;28;20052;-78
2022/10/30 03:16:29;;;;;;;26.17;13.73;;;13.80;99.90;;;;;;5073288;28;20044;-78
2022/10/30 03:18:56;;;;;;;24.03;13.23;;;13.90;99.90;;;;;;5072535;28;20052;-78
2022/10/30 03:21:25;;;;;;;32.90;15.60;;;13.80;99.90;;;;;;5073460;28;20048;-78
2022/10/30 03:23:51;;;;;;;21.93;13.50;;;13.80;99.90;;;;;;5073525;28;20052;-78
2022/10/30 03:26:17;;;;;;;29.73;13.30;;;13.80;99.90;;;;;;5073127;28;20048;-78
2022/10/30 03:28:43;;;;;;;22.20;12.63;;;13.80;99.90;;;;;;5073177;28;20056;-78
2022/10/30 03:31:12;;;;;;;23.37;13.63;;;13.80;99.90;;;;;;5072427;28;20088;-78
2022/10/30 03:33:38;;;;;;;21.63;13.63;;;13.80;99.90;;;;;;5071845;28;20044;-78
2022/10/30 03:36:05;;;;;;;21.77;13.23;;;13.80;99.90;;;;;;5073331;28;20040;-78
2022/10/30 03:38:31;;;;;;;26.73;12.87;;;13.80;99.90;;;;;;5072053;28;20484;-78
2022/10/30 03:40:57;;;;;;;21.33;14.00;;;13.80;99.90;;;;;;5073568;28;20144;-78
2022/10/30 03:43:23;;;;;;;24.60;14.10;;;13.80;99.90;;;;;;5073247;28;20524;-78
2022/10/30 03:45:51;;;;;;;23.33;13.63;;;13.80;99.90;;;;;;5072792;28;20040;-77
2022/10/30 03:48:20;;;;;;;30.47;14.07;;;13.80;99.90;;;;;;5073241;28;20067;-78
2022/10/30 03:50:46;;;;;;;28.43;14.40;;;13.80;99.90;;;;;;5072879;28;20044;-78
2022/10/30 03:53:13;;;;;;;28.10;14.03;;;13.80;99.90;;;;;;5073107;28;20555;-78
2022/10/30 03:55:39;;;;;;;22.00;13.97;;;13.80;99.90;;;;;;5072964;28;20400;-78
2022/10/30 03:58:05;;;;;;;24.93;13.20;;;13.70;99.90;;;;;;5073151;28;20048;-78
2022/10/30 04:00:31;;;;;;;28.40;13.37;;;13.80;99.90;;;;;;5071796;28;20393;-78
2022/10/30 04:02:57;;;;;;;28.83;13.83;;;13.70;99.90;;;;;;5073260;28;20052;-77
2022/10/30 04:05:24;;;;;;;24.57;14.20;;;13.80;99.90;;;;;;5073105;28;20044;-77
2022/10/30 04:07:55;;;;;;;31.57;14.73;;;13.70;99.90;;;;;;5075152;28;20158;-78
2022/10/30 04:10:21;;;;;;;28.23;14.60;;;13.70;99.90;;;;;;5077249;28;20049;-78
2022/10/30 04:12:47;;;;;;;23.10;14.33;;;13.70;99.90;;;;;;5076701;28;20048;-77
2022/10/30 04:15:12;;;;;;;31.00;14.50;;;13.70;99.90;;;;;;5076975;28;20052;-78
2022/10/30 04:17:38;;;;;;;23.20;14.50;;;13.60;99.90;;;;;;5076770;28;20462;-78
2022/10/30 04:20:04;;;;;;;21.27;13.70;;;13.70;99.90;;;;;;5076561;28;20045;-78
2022/10/30 04:22:30;;;;;;;26.30;14.40;;;13.70;99.90;;;;;;5076849;28;20047;-78
2022/10/30 04:24:56;;;;;;;25.70;13.73;;;13.70;99.90;;;;;;5076491;28;20396;-78
2022/10/30 04:27:21;;;;;;;28.27;15.60;;;13.70;99.90;;;;;;5075502;28;20139;-78
2022/10/30 04:29:47;;;;;;;25.50;13.60;;;13.60;99.90;;;;;;5075280;28;20048;-78
2022/10/30 04:32:13;;;;;;;25.20;13.67;;;13.60;99.90;;;;;;5075990;28;20084;-78
2022/10/30 04:34:38;;;;;;;26.10;14.90;;;13.60;99.90;;;;;;5076440;28;20060;-79
2022/10/30 04:37:07;;;;;;;26.27;15.00;;;13.60;99.90;;;;;;5076633;28;20048;-78
2022/10/30 04:39:33;;;;;;;27.73;14.03;;;13.60;99.90;;;;;;5075560;28;20044;-78
2022/10/30 04:41:59;;;;;;;26.63;13.90;;;13.60;99.90;;;;;;5075262;28;20049;-78
2022/10/30 04:44:24;;;;;;;26.03;13.47;;;13.60;99.90;;;;;;5075466;28;20040;-79
2022/10/30 04:46:51;;;;;;;23.50;13.00;;;13.60;99.90;;;;;;5074919;28;20068;-79
2022/10/30 04:49:17;;;;;;;20.13;14.00;;;13.60;99.90;;;;;;5075415;28;20086;-78
2022/10/30 04:51:45;;;;;;;25.20;12.97;;;13.60;99.90;;;;;;5076053;28;20076;-78
2022/10/30 04:54:10;;;;;;;27.60;13.50;;;13.60;99.90;;;;;;5076241;28;20135;-78
2022/10/30 04:56:36;;;;;;;26.70;13.13;;;13.50;99.90;;;;;;5076187;28;20120;-78
2022/10/30 04:59:03;;;;;;;24.63;13.43;;;13.50;99.90;;;;;;5074948;28;20477;-78
2022/10/30 05:01:29;;;;;;;24.17;13.87;;;13.50;99.90;;;;;;5075158;28;20379;-78
2022/10/30 05:03:57;;;;;;;20.77;13.07;;;13.50;99.90;;;;;;5075815;28;20047;-78
2022/10/30 05:06:29;;;;;;;23.20;14.13;;;13.40;99.90;;;;;;5075929;28;20045;-78
2022/10/30 05:08:55;;;;;;;26.50;13.03;;;13.40;99.90;;;;;;5075786;28;20040;-78
2022/10/30 05:11:21;;;;;;;21.00;12.70;;;13.40;99.90;;;;;;5075906;28;20044;-78
2022/10/30 05:13:49;;;;;;;18.87;13.07;;;13.40;99.90;;;;;;5075485;28;20127;-78
2022/10/30 05:16:15;;;;;;;27.93;13.33;;;13.40;99.90;;;;;;5041583;28;20049;-78
2022/10/30 05:18:41;;;;;;;20.87;12.53;;;13.40;99.90;;;;;;5075686;28;20047;-80
2022/10/30 05:21:06;;;;;;;28.00;13.70;;;13.30;99.90;;;;;;5075825;28;20548;-78
2022/10/30 05:23:32;;;;;;;23.23;13.50;;;13.30;99.90;;;;;;5075778;28;20044;-78
2022/10/30 05:26:01;;;;;;;26.43;13.87;;;13.30;99.90;;;;;;5075664;28;20102;-78
2022/10/30 05:28:27;;;;;;;22.20;12.87;;;13.20;99.90;;;;;;5076030;28;20095;-78
2022/10/30 05:30:53;;;;;;;20.03;12.60;;;13.20;99.90;;;;;;5075355;28;20084;-78
2022/10/30 05:33:20;;;;;;;26.30;14.37;;;13.20;99.90;;;;;;5057858;28;20086;-78
2022/10/30 05:35:45;;;;;;;22.63;13.37;;;13.20;99.90;;;;;;5075180;28;20040;-78
2022/10/30 05:38:12;;;;;;;24.13;12.90;;;13.20;99.90;;;;;;5075153;28;20839;-78
2022/10/30 05:40:38;;;;;;;20.90;13.40;;;13.20;99.90;;;;;;5075379;28;20123;-78
2022/10/30 05:43:04;;;;;;;23.17;14.17;;;13.20;99.90;;;;;;5075220;28;21256;-78
2022/10/30 05:45:30;;;;;;;24.77;14.27;;;13.20;99.90;;;;;;5075179;28;20045;-78
2022/10/30 05:48:00;;;;;;;21.70;14.30;;;13.20;99.90;;;;;;5074978;28;20623;-78
2022/10/30 05:50:27;;;;;;;23.27;15.07;;;13.20;99.90;;;;;;5075465;28;20048;-78
2022/10/30 05:52:56;;;;;;;23.37;13.97;;;13.20;99.90;;;;;;5074920;28;20447;-79
2022/10/30 05:55:22;;;;;;;28.53;14.53;;;13.10;99.90;;;;;;5075317;28;20305;-78
2022/10/30 05:57:48;;;;;;;23.73;14.30;;;13.10;99.90;;;;;;5074793;28;20286;-79
2022/10/30 06:00:14;;;;;;;24.77;14.07;;;13.10;99.90;;;;;;5075012;28;20056;-78
2022/10/30 06:02:40;;;;;;;22.93;13.23;;;13.10;99.90;;;;;;5074914;28;20040;-78
2022/10/30 06:05:06;;;;;;;26.37;14.40;;;13.10;99.90;;;;;;5074299;28;20044;-78
2022/10/30 06:07:31;;;;;;;26.33;14.07;;;13.10;99.90;;;;;;5073700;28;20044;-78
2022/10/30 06:09:57;;;;;;;24.63;13.70;;;13.10;99.90;;;;;;5056726;28;20287;-78
2022/10/30 06:12:23;;;;;;;28.17;14.57;;;13.10;99.90;;;;;;5075115;28;20048;-78
2022/10/30 06:14:48;;;;;;;22.60;15.93;;;13.10;99.90;;;;;;5074773;28;20500;-79
2022/10/30 06:17:14;;;;;;;27.07;15.03;;;13.10;99.90;;;;;;5074790;28;20496;-78
2022/10/30 06:19:40;;;;;;;30.67;14.83;;;13.00;99.90;;;;;;5074384;28;20048;-78
2022/10/30 06:22:05;;;;;;;22.77;15.27;;;13.00;99.90;;;;;;5074428;28;20049;-78
2022/10/30 06:24:31;;;;;;;32.40;16.07;;;13.00;99.90;;;;;;5074651;28;20044;-78
2022/10/30 06:26:57;;;;;;;20.33;13.93;;;13.00;99.90;;;;;;5072784;28;20185;-78
2022/10/30 06:29:22;;;;;;;26.23;14.23;;;13.00;99.90;;;;;;5073876;28;20079;-78
2022/10/30 06:31:48;;;;;;;31.73;17.03;;;13.00;99.90;;;;;;5074463;28;20134;-78
2022/10/30 06:34:14;;;;;;;28.67;16.30;;;13.00;99.90;;;;;;5074106;28;20051;-78
2022/10/30 06:36:39;;;;;;;26.83;15.13;;;13.00;99.90;;;;;;5074593;28;20338;-78
2022/10/30 06:39:05;;;;;;;24.77;14.93;;;13.00;99.90;;;;;;5072866;28;20136;-78
2022/10/30 06:41:32;;;;;;;22.77;14.00;;;13.00;99.90;;;;;;5074519;28;20481;-78
2022/10/30 06:43:58;;;;;;;29.23;15.73;;;13.00;99.90;;;;;;5056309;28;20048;-78
2022/10/30 06:46:24;;;;;;;29.30;15.10;;;13.00;99.90;;;;;;5074037;28;20337;-78
2022/10/30 06:48:50;;;;;;;25.20;16.23;;;13.00;99.90;;;;;;5074107;28;20322;-78
2022/10/30 06:51:16;;;;;;;25.63;14.80;;;13.10;99.90;;;;;;5073817;28;20127;-78
2022/10/30 06:53:41;;;;;;;27.43;16.70;;;13.10;99.90;;;;;;5073973;28;20044;-77
2022/10/30 06:56:08;;;;;;;27.50;16.17;;;13.10;99.90;;;;;;5072554;28;20148;-77
2022/10/30 06:58:37;;;;;;;26.93;15.30;;;13.10;99.90;;;;;;5073834;28;20044;-77
2022/10/30 07:01:05;;;;;;;25.00;15.20;;;13.20;99.90;;;;;;5072678;28;20314;-78
2022/10/30 07:03:31;;;;;;;26.13;15.17;;;13.20;99.90;;;;;;5073785;28;20330;-74
2022/10/30 07:05:57;;;;;;;29.30;15.30;;;13.20;99.90;;;;;;5072209;28;20313;-77
2022/10/30 07:08:23;;;;;;;29.57;16.23;;;13.20;99.90;;;;;;5073944;28;20758;-76
2022/10/30 07:10:49;;;;;;;28.83;16.10;;;13.20;99.90;;;;;;5073650;28;20052;-76
2022/10/30 07:13:15;;;;;;;22.67;14.10;;;13.20;99.90;;;;;;5072388;28;20297;-77
2022/10/30 07:15:41;;;;;;;25.63;16.17;;;13.30;99.90;;;;;;5073838;28;20434;-79
2022/10/30 07:18:08;;;;;;;22.40;14.43;;;13.30;99.90;;;;;;5073544;28;20374;-79
2022/10/30 07:20:35;;;;;;;30.13;16.37;;;13.30;99.90;;;;;;5074050;28;20111;-79
2022/10/30 07:23:01;;;;;;;30.10;16.97;;;13.30;99.90;;;;;;5072265;28;20037;-80
2022/10/30 07:25:27;;;;;;;28.53;17.20;;;13.40;99.90;;;;;;5073360;28;20295;-79
2022/10/30 07:27:54;;;;;;;29.27;16.87;;;13.40;99.90;;;;;;5073101;28;20801;-79
2022/10/30 07:30:23;;;;;;;28.13;15.87;;;13.40;99.90;;;;;;5073112;28;20310;-80
2022/10/30 07:33:00;;;;;;;24.83;15.30;;;13.30;99.90;;;;;;5073318;28;20294;-79
2022/10/30 07:35:26;;;;;;;32.33;16.50;;;13.40;99.90;;;;;;5072129;28;20748;-80
2022/10/30 07:37:52;;;;;;;28.03;15.13;;;13.40;99.90;;;;;;5073269;28;20275;-79
2022/10/30 07:40:19;;;;;;;25.93;14.43;;;13.40;99.90;;;;;;5073014;28;20278;-79
2022/10/30 07:42:45;;;;;;;30.17;16.00;;;13.50;99.90;;;;;;5072979;28;20055;-79
2022/10/30 07:45:11;;;;;;;23.83;14.57;;;13.50;99.90;;;;;;5072562;28;20779;-79
2022/10/30 07:47:42;;;;;;;24.93;15.37;;;13.50;99.90;;;;;;5072511;28;20041;-80
2022/10/30 07:50:09;;;;;;;31.57;16.17;;;13.60;99.90;;;;;;5071758;28;20044;-78
2022/10/30 07:52:35;;;;;;;25.33;15.77;;;13.60;99.90;;;;;;5071910;28;20057;-79
2022/10/30 07:55:01;;;;;;;24.23;14.50;;;13.60;99.90;;;;;;5073076;28;20287;-79
2022/10/30 07:57:31;;;;;;;27.07;15.20;;;13.60;99.90;;;;;;5072829;28;20052;-78
2022/10/30 07:59:56;;;;;;;25.07;15.47;;;13.70;99.90;;;;;;5073027;28;20127;-78
2022/10/30 08:02:22;;;;;;;21.67;13.67;;;13.70;99.90;;;;;;5072746;28;20136;-80
2022/10/30 08:04:48;;;;;;;23.40;14.63;;;13.70;99.90;;;;;;5073318;28;20045;-79
2022/10/30 08:07:13;;;;;;;27.77;14.97;;;13.80;99.90;;;;;;5071787;28;20456;-78
2022/10/30 08:09:39;;;;;;;23.27;14.87;;;13.80;99.90;;;;;;5072880;28;20041;-78
2022/10/30 08:12:05;;;;;;;27.67;15.23;;;13.90;99.90;;;;;;5072902;28;20051;-79
2022/10/30 08:14:31;;;;;;;25.70;15.50;;;13.90;99.90;;;;;;5071770;28;20049;-78
2022/10/30 08:16:57;;;;;;;23.70;14.20;;;13.90;99.90;;;;;;5073129;28;20051;-78
2022/10/30 08:19:22;;;;;;;27.37;15.30;;;13.90;99.90;;;;;;5071423;28;20455;-78
2022/10/30 08:21:48;;;;;;;23.37;15.40;;;14.00;99.90;;;;;;5073041;28;20095;-78
2022/10/30 08:24:13;;;;;;;27.77;15.33;;;14.00;99.90;;;;;;5072559;28;20098;-78
2022/10/30 08:26:39;;;;;;;27.10;15.27;;;14.00;99.90;;;;;;5072310;28;20088;-77
2022/10/30 08:29:05;;;;;;;26.10;16.67;;;14.00;99.90;;;;;;5072777;28;20048;-78
2022/10/30 08:31:30;;;;;;;23.47;13.60;;;14.10;99.90;;;;;;5054802;28;20045;-78
2022/10/30 08:33:56;;;;;;;24.93;15.40;;;14.10;99.90;;;;;;5072403;28;20385;-78
2022/10/30 08:36:22;;;;;;;27.53;14.67;;;14.10;99.90;;;;;;5072341;28;20076;-78
2022/10/30 08:38:47;;;;;;;24.00;16.20;;;14.20;99.90;;;;;;5071658;28;20056;-78
2022/10/30 08:41:13;;;;;;;24.03;15.23;;;14.20;99.90;;;;;;5071186;28;20052;-79
2022/10/30 08:43:39;;;;;;;25.10;15.87;;;14.30;99.90;;;;;;5072565;28;20052;-78
2022/10/30 08:46:04;;;;;;;23.10;14.20;;;14.30;99.90;;;;;;5071374;28;20045;-77
2022/10/30 08:48:30;;;;;;;25.90;15.53;;;14.40;99.90;;;;;;5072339;28;20058;-79
2022/10/30 08:51:00;;;;;;;25.17;14.93;;;14.40;99.90;;;;;;5071404;28;20052;-79
2022/10/30 08:53:25;;;;;;;24.17;14.20;;;14.40;99.90;;;;;;5073902;28;20381;-78
2022/10/30 08:55:51;;;;;;;25.23;14.90;;;14.50;99.90;;;;;;5058412;28;20051;-79
2022/10/30 08:58:17;;;;;;;26.77;15.77;;;14.50;99.90;;;;;;5074755;28;20082;-80
2022/10/30 09:00:42;;;;;;;26.27;15.53;;;14.50;99.90;;;;;;5075832;28;20044;-76
2022/10/30 09:03:08;;;;;;;27.40;16.07;;;14.60;99.90;;;;;;5074696;28;20131;-80
2022/10/30 09:05:36;;;;;;;22.10;15.23;;;14.60;99.90;;;;;;5075824;28;20048;-80
2022/10/30 09:08:01;;;;;;;26.50;14.50;;;14.70;99.90;;;;;;5076744;28;20083;-85
2022/10/30 09:10:27;;;;;;;27.93;15.33;;;14.70;99.90;;;;;;5072566;28;20080;-85
2022/10/30 09:12:57;;;;;;;25.13;15.10;;;14.80;99.90;;;;;;5057771;28;20411;-83
2022/10/30 09:15:25;;;;;;;26.37;15.87;;;14.80;99.90;;;;;;5055393;28;20051;-84
2022/10/30 09:17:55;;;;;;;28.70;14.83;;;14.80;99.90;;;;;;5075451;28;20101;-83
2022/10/30 09:20:20;;;;;;;23.77;13.97;;;14.90;99.90;;;;;;5074469;28;20056;-84
2022/10/30 09:22:46;;;;;;;23.60;15.40;;;14.90;99.90;;;;;;5074945;28;20040;-84
2022/10/30 09:25:12;;;;;;;24.00;14.60;;;14.90;99.90;;;;;;5074548;28;20155;-82
2022/10/30 09:27:38;;;;;;;23.97;14.60;;;15.00;99.90;;;;;;5073937;28;20052;-82
2022/10/30 09:30:05;;;;;;;31.30;15.77;;;15.00;99.90;;;;;;5075683;28;20049;-82
2022/10/30 09:32:31;;;;;;;27.30;15.93;;;15.10;99.90;;;;;;5075147;28;20045;-80
2022/10/30 09:34:57;;;;;;;22.17;14.47;;;15.10;99.90;;;;;;5075432;28;20388;-72
2022/10/30 09:37:23;;;;;;;23.47;14.47;;;15.10;99.90;;;;;;5075072;28;20044;-72
2022/10/30 09:39:49;;;;;;;25.90;14.93;;;15.20;99.90;;;;;;5074321;28;20057;-73
2022/10/30 09:42:39;;;;;;;28.53;14.77;;;15.20;99.90;;;;;;5075524;28;20080;-72
2022/10/30 09:45:14;;;;;;;30.97;15.43;;;15.20;99.90;;;;;;5074465;28;20048;-75
2022/10/30 09:47:46;;;;;;;28.05;15.23;;;15.30;99.90;;;;;;5075158;28;20075;-72
2022/10/30 09:50:31;;;;;;;26.87;14.93;;;15.40;99.90;;;;;;5074972;28;20055;-75
2022/10/30 09:53:17;;;;;;;27.27;15.27;;;15.40;99.90;;;;;;5074970;28;20036;-77
2022/10/30 09:56:05;;;;;;;26.67;15.57;;;15.40;99.90;;;;;;5074547;28;20045;-76
2022/10/30 09:59:04;;;;;;;21.73;14.13;;;15.50;99.90;;;;;;5073734;28;20048;-73
2022/10/30 10:01:37;;;;;;;25.27;16.60;;;15.50;99.90;;;;;;5074738;28;20392;-73
2022/10/30 10:04:11;;;;;;;27.57;14.73;;;15.60;99.90;;;;;;5074416;28;20048;-76
2022/10/30 10:06:42;;;;;;;25.90;15.88;;;15.60;99.90;;;;;;5074376;28;20564;-74
2022/10/30 10:09:17;;;;;;;27.80;16.30;;;15.60;99.90;;;;;;5075097;28;20079;-76
2022/10/30 10:11:50;;;;;;;23.65;15.15;;;15.70;99.90;;;;;;5073459;28;20069;-75
2022/10/30 10:14:26;;;;;;;27.80;15.07;;;15.70;99.90;;;;;;5074950;28;20052;-75
2022/10/30 10:16:54;;;;;;;24.07;14.80;;;15.70;99.90;;;;;;5074630;28;20063;-76
2022/10/30 10:19:25;;;;;;;33.93;15.63;;;15.70;99.90;;;;;;5074583;28;20099;-76
2022/10/30 10:22:01;;;;;;;26.47;15.33;;;15.80;99.90;;;;;;5074286;28;20048;-75
2022/10/30 10:24:32;;;;;;;24.10;15.50;;;15.80;99.90;;;;;;5073976;28;20040;-78
2022/10/30 10:27:26;;;;;;;31.87;16.10;;;15.90;99.90;;;;;;5074724;28;20091;-81
2022/10/30 10:30:17;;;;;;;22.35;14.80;;;16.00;99.90;;;;;;5073927;28;20041;-76
2022/10/30 10:32:59;;;;;;;27.87;15.20;;;16.00;99.90;;;;;;5073991;28;20049;-83
2022/10/30 10:35:56;;;;;;;26.57;16.50;;;16.10;99.90;;;;;;5073988;28;20491;-83
2022/10/30 10:38:43;;;;;;;21.70;13.47;;;16.10;99.90;;;;;;5072201;28;20400;-81
2022/10/30 10:41:39;;;;;;;25.47;15.47;;;16.10;99.90;;;;;;5071710;28;20052;-82
2022/10/30 10:44:32;;;;;;;29.97;15.20;;;16.20;99.90;;;;;;5073636;28;20048;-81
2022/10/30 10:47:01;;;;;;;27.30;15.00;;;16.20;99.90;;;;;;5073854;28;20048;-78
2022/10/30 10:49:29;;;;;;;27.50;15.03;;;16.20;99.90;;;;;;5072561;28;20494;-77
2022/10/30 10:52:00;;;;;;;22.63;14.90;;;16.30;99.90;;;;;;5073624;28;20056;-77
2022/10/30 10:54:41;;;;;;;29.50;15.47;;;16.30;99.90;;;;;;5073013;28;20048;-85
2022/10/30 10:57:11;;;;;;;23.73;14.07;;;16.40;99.90;;;;;;5056438;28;20060;-84
2022/10/30 10:59:45;;;;;;;28.87;15.13;;;16.40;99.90;;;;;;5072568;28;20094;-84
2022/10/30 11:02:29;;;;;;;28.65;16.73;;;16.50;99.90;;;;;;5073991;28;20090;-82
2022/10/30 11:05:01;;;;;;;25.95;15.95;;;16.50;99.90;;;;;;5072477;28;20485;-83
2022/10/30 11:07:34;;;;;;;24.33;14.13;;;16.50;99.90;;;;;;5073888;28;20044;-83
2022/10/30 11:10:00;;;;;;;24.43;14.47;;;16.70;99.90;;;;;;5073051;28;20052;-83
2022/10/30 11:12:30;;;;;;;27.53;14.73;;;16.70;99.90;;;;;;5070046;28;20504;-83
2022/10/30 11:15:04;;;;;;;24.80;14.93;;;16.70;99.90;;;;;;5072850;28;20044;-83
2022/10/30 11:17:41;;;;;;;27.58;14.40;;;16.80;99.90;;;;;;5071968;28;20045;-83
2022/10/30 11:21:01;;;;;;;22.43;14.50;;;16.80;99.90;;;;;;5071558;28;20051;-76
2022/10/30 11:23:32;;;;;;;22.27;14.10;;;16.90;99.90;;;;;;5029098;28;20045;-82
2022/10/30 11:25:59;;;;;;;22.63;13.00;;;17.00;99.90;;;;;;5067213;28;20492;-81
2022/10/30 11:28:50;;;;;;;23.67;13.10;;;17.00;99.90;;;;;;5071526;28;20135;-85
2022/10/30 11:31:22;;;;;;;21.03;13.07;;;17.00;99.90;;;;;;5072331;28;20083;-84
2022/10/30 11:33:49;;;;;;;21.63;12.10;;;17.10;99.90;;;;;;5072625;28;20076;-84
2022/10/30 11:36:17;;;;;;;20.93;11.90;;;17.10;99.90;;;;;;5071935;28;20048;-86
2022/10/30 11:38:43;;;;;;;24.70;13.70;;;17.10;99.90;;;;;;5070114;28;20044;-85
2022/10/30 11:41:12;;;;;;;26.83;13.30;;;17.10;99.90;;;;;;5073150;28;20054;-85
2022/10/30 11:43:39;;;;;;;24.50;13.30;;;17.20;99.90;;;;;;5055475;28;20086;-84
2022/10/30 11:46:09;;;;;;;24.30;13.40;;;17.10;99.90;;;;;;5072857;28;20539;-78
2022/10/30 11:48:42;;;;;;;23.77;14.10;;;17.20;99.90;;;;;;5072444;28;20385;-84
2022/10/30 11:51:10;;;;;;;23.60;12.80;;;17.20;99.90;;;;;;5073207;28;20547;-86
2022/10/30 11:53:49;;;;;;;25.80;11.93;;;17.20;99.90;;;;;;5071971;28;20384;-85
2022/10/30 11:56:23;;;;;;;26.17;13.63;;;17.20;99.90;;;;;;5073476;28;20056;-83
2022/10/30 11:58:53;;;;;;;24.95;12.77;;;17.20;99.90;;;;;;5073001;28;20143;-83
2022/10/30 12:01:22;;;;;;;23.77;12.20;;;17.20;99.90;;;;;;5072115;28;20080;-83
2022/10/30 12:03:49;;;;;;;28.23;13.30;;;17.30;99.90;;;;;;5072885;28;20052;-85
2022/10/30 12:06:22;;;;;;;24.57;13.73;;;17.30;99.90;;;;;;5071917;28;20469;-76
2022/10/30 12:09:10;;;;;;;21.70;12.03;;;17.30;99.90;;;;;;5072721;28;20052;-84
2022/10/30 12:11:38;;;;;;;19.87;12.67;;;17.40;99.90;;;;;;5106042;28;20045;-85
2022/10/30 12:14:04;;;;;;;23.90;14.00;;;17.40;99.90;;;;;;5071492;28;20098;-80
2022/10/30 12:16:31;;;;;;;28.03;13.93;;;17.40;99.90;;;;;;5072959;28;20123;-77
2022/10/30 12:19:02;;;;;;;28.03;13.13;;;17.50;99.90;;;;;;5072709;28;20045;-80
2022/10/30 12:21:34;;;;;;;19.93;13.53;;;17.50;99.90;;;;;;5072778;28;20048;-80
2022/10/30 12:24:05;;;;;;;24.30;13.07;;;17.50;99.90;;;;;;5072534;28;20431;-80
2022/10/30 12:26:34;;;;;;;23.70;12.87;;;17.50;99.90;;;;;;5072961;28;20109;-80
2022/10/30 12:29:03;;;;;;;21.63;13.43;;;17.50;99.90;;;;;;5055379;28;20102;-80
2022/10/30 12:31:37;;;;;;;24.67;13.40;;;17.50;99.90;;;;;;5056913;28;20053;-80
2022/10/30 12:34:11;;;;;;;24.57;14.10;;;17.50;99.90;;;;;;5056833;28;20118;-80
2022/10/30 12:36:44;;;;;;;25.23;14.30;;;17.60;99.90;;;;;;5056904;28;20128;-80
2022/10/30 12:39:31;;;;;;;24.10;13.17;;;17.50;99.90;;;;;;5056940;28;20279;-80